Time,TemperatureF,DewpointF,PressureIn,WindDirection,WindDirectionDegrees,WindSpeedMPH,WindSpeedGustMPH,Humidity,HourlyPrecipIn,Conditions,Clouds,dailyrainin,SolarRadiationWatts/m^2,SoftwareType,DateUTC
2013-09-02 01:22:00,57.0,57.0,-100.00,NNW,328,0.0,0.0,100,-99.99,,,0.00,0.000000,,2013-09-02 06:22:00,
2013-09-02 01:32:00,57.0,57.0,-100.00,NNW,328,0.0,0.0,100,-99.99,,,0.00,0.000000,,2013-09-02 06:32:00,
2013-09-02 01:43:00,57.0,57.0,-100.00,NNW,328,0.0,0.0,100,-99.99,,,0.00,0.000000,,2013-09-02 06:43:00,
2013-09-02 01:52:00,57.0,57.0,-100.00,NNW,328,0.0,0.0,100,-99.99,,,0.00,0.000000,,2013-09-02 06:52:00,
2013-09-02 03:52:00,52.0,52.0,-100.00,West,263,0.0,3.0,100,-99.99,,,0.00,0.000000,,2013-09-02 08:52:00,
2013-09-02 05:23:00,52.0,52.0,-100.00,WSW,258,2.0,4.0,100,-99.99,,,0.00,0.000000,,2013-09-02 10:23:00,
2013-09-02 05:33:00,52.0,52.0,-100.00,WSW,258,2.0,4.0,100,-99.99,,,0.00,0.000000,,2013-09-02 10:33:00,
2013-09-02 05:42:00,52.0,52.0,-100.00,WSW,258,2.0,4.0,100,-99.99,,,0.00,0.000000,,2013-09-02 10:42:00,
2013-09-02 05:53:00,52.0,52.0,-100.00,WSW,258,2.0,4.0,100,-99.99,,,0.00,0.000000,,2013-09-02 10:53:00,
2013-09-02 06:22:00,51.0,51.0,-100.00,West,269,2.0,3.0,100,0.00,,,0.00,0.000000,,2013-09-02 11:22:00,
2013-09-02 06:33:00,51.0,51.0,-100.00,West,269,2.0,3.0,100,0.00,,,0.00,0.000000,,2013-09-02 11:33:00,
2013-09-02 06:42:00,51.0,51.0,-100.00,West,269,2.0,3.0,100,0.00,,,0.00,0.000000,,2013-09-02 11:42:00,
2013-09-02 06:52:00,51.0,51.0,-100.00,West,269,2.0,3.0,100,0.00,,,0.00,0.000000,,2013-09-02 11:52:00,
2013-09-02 07:21:00,51.0,51.0,-100.00,WNW,297,1.0,4.0,100,0.00,,,0.00,0.000000,,2013-09-02 12:21:00,
2013-09-02 07:32:00,51.0,51.0,-100.00,WNW,297,1.0,4.0,100,0.00,,,0.00,0.000000,,2013-09-02 12:32:00,
2013-09-02 07:43:00,51.0,51.0,-100.00,WNW,297,1.0,4.0,100,0.00,,,0.00,0.000000,,2013-09-02 12:43:00,
2013-09-02 07:52:00,51.0,51.0,-100.00,WNW,297,1.0,4.0,100,0.00,,,0.00,0.000000,,2013-09-02 12:52:00,
2013-09-02 08:22:00,57.0,57.0,-100.00,NNW,348,2.0,4.0,100,0.00,,,0.00,0.000000,,2013-09-02 13:22:00,
2013-09-02 08:32:00,57.0,57.0,-100.00,NNW,348,2.0,4.0,100,0.00,,,0.00,0.000000,,2013-09-02 13:32:00,
2013-09-02 08:42:00,57.0,57.0,-100.00,NNW,348,2.0,4.0,100,0.00,,,0.00,0.000000,,2013-09-02 13:42:00,
2013-09-02 08:52:00,57.0,57.0,-100.00,NNW,348,2.0,4.0,100,0.00,,,0.00,0.000000,,2013-09-02 13:52:00,
2013-09-02 09:22:00,64.0,64.0,-100.00,NNE,13,5.0,7.0,100,0.00,,,0.00,0.000000,,2013-09-02 14:22:00,
2013-09-02 09:32:00,64.0,64.0,-100.00,NNE,13,5.0,7.0,100,0.00,,,0.00,0.000000,,2013-09-02 14:32:00,
2013-09-02 09:43:00,64.0,64.0,-100.00,NNE,13,5.0,7.0,100,0.00,,,0.00,0.000000,,2013-09-02 14:43:00,
2013-09-02 09:52:00,64.0,64.0,-100.00,NNE,13,5.0,7.0,100,0.00,,,0.00,0.000000,,2013-09-02 14:52:00,
2013-09-02 10:44:00,72.0,68.0,-100.00,East,81,1.0,6.0,88,0.00,,,0.00,0.000000,,2013-09-02 15:44:00,
2013-09-02 10:54:00,72.0,68.0,-100.00,East,81,1.0,6.0,88,0.00,,,0.00,0.000000,,2013-09-02 15:54:00,
2013-09-02 11:24:00,74.0,66.0,-100.00,North,5,4.0,8.0,75,0.00,,,0.00,0.000000,,2013-09-02 16:24:00,
2013-09-02 11:34:00,74.0,66.0,-100.00,North,5,4.0,8.0,75,0.00,,,0.00,0.000000,,2013-09-02 16:34:00,
2013-09-02 11:42:00,74.0,66.0,-100.00,North,5,4.0,8.0,75,0.00,,,0.00,0.000000,,2013-09-02 16:42:00,
2013-09-02 11:53:00,74.0,66.0,-100.00,North,5,4.0,8.0,75,0.00,,,0.00,0.000000,,2013-09-02 16:53:00,
2013-09-02 12:23:00,76.0,62.0,-100.00,North,355,4.0,10.0,61,0.00,,,-99.99,0.000000,,2013-09-02 17:23:00,
2013-09-02 12:34:00,76.0,62.0,-100.00,North,355,4.0,10.0,61,0.00,,,-99.99,0.000000,,2013-09-02 17:34:00,
2013-09-02 12:44:00,76.0,62.0,-100.00,North,355,4.0,10.0,61,0.00,,,-99.99,0.000000,,2013-09-02 17:44:00,
2013-09-02 12:52:00,76.0,62.0,-100.00,North,355,4.0,10.0,61,0.00,,,-99.99,0.000000,,2013-09-02 17:52:00,
2013-09-02 13:22:00,78.0,62.0,-100.00,NNE,31,5.0,9.0,57,0.00,,,0.00,0.000000,,2013-09-02 18:22:00,
2013-09-02 13:32:00,78.0,62.0,-100.00,NNE,31,5.0,9.0,57,0.00,,,0.00,0.000000,,2013-09-02 18:32:00,
2013-09-02 13:42:00,78.0,62.0,-100.00,NNE,31,5.0,9.0,57,0.00,,,0.00,0.000000,,2013-09-02 18:42:00,
2013-09-02 13:52:00,78.0,62.0,-100.00,NNE,31,5.0,9.0,57,0.00,,,0.00,0.000000,,2013-09-02 18:52:00,
2013-09-02 14:22:00,80.0,60.0,-100.00,North,349,5.0,10.0,51,0.00,,,0.00,0.000000,,2013-09-02 19:22:00,
2013-09-02 14:32:00,80.0,60.0,-100.00,North,349,5.0,10.0,51,0.00,,,0.00,0.000000,,2013-09-02 19:32:00,
2013-09-02 14:42:00,80.0,60.0,-100.00,North,349,5.0,10.0,51,0.00,,,0.00,0.000000,,2013-09-02 19:42:00,
2013-09-02 14:52:00,80.0,60.0,-100.00,North,349,5.0,10.0,51,0.00,,,0.00,0.000000,,2013-09-02 19:52:00,
2013-09-02 15:22:00,81.0,61.0,-100.00,NW,322,6.0,10.0,51,0.00,,,0.00,0.000000,,2013-09-02 20:22:00,
2013-09-02 15:32:00,81.0,61.0,-100.00,NW,322,6.0,10.0,51,0.00,,,0.00,0.000000,,2013-09-02 20:32:00,
2013-09-02 15:42:00,81.0,61.0,-100.00,NW,322,6.0,10.0,51,0.00,,,0.00,0.000000,,2013-09-02 20:42:00,
2013-09-02 15:52:00,81.0,61.0,-100.00,NW,322,6.0,10.0,51,0.00,,,0.00,0.000000,,2013-09-02 20:52:00,
2013-09-02 16:23:00,82.0,60.0,-100.00,NNE,32,6.0,11.0,48,0.00,,,0.00,0.000000,,2013-09-02 21:23:00,
2013-09-02 16:34:00,82.0,60.0,-100.00,NNE,32,6.0,11.0,48,0.00,,,0.00,0.000000,,2013-09-02 21:34:00,
2013-09-02 16:44:00,82.0,60.0,-100.00,NNE,32,6.0,11.0,48,0.00,,,0.00,0.000000,,2013-09-02 21:44:00,
2013-09-02 16:54:00,82.0,60.0,-100.00,NNE,32,6.0,11.0,48,0.00,,,0.00,0.000000,,2013-09-02 21:54:00,
2013-09-02 17:24:00,82.0,60.0,-100.00,NE,40,5.0,10.0,47,0.00,,,0.00,0.000000,,2013-09-02 22:24:00,
2013-09-02 17:33:00,82.0,60.0,-100.00,NE,40,5.0,10.0,47,0.00,,,0.00,0.000000,,2013-09-02 22:33:00,
2013-09-02 17:44:00,82.0,60.0,-100.00,NE,40,5.0,10.0,47,0.00,,,0.00,0.000000,,2013-09-02 22:44:00,
2013-09-02 17:54:00,82.0,60.0,-100.00,NE,40,5.0,10.0,47,0.00,,,0.00,0.000000,,2013-09-02 22:54:00,
2013-09-02 18:22:00,81.0,59.0,-100.00,NE,38,3.0,8.0,47,0.00,,,-99.99,0.000000,,2013-09-02 23:22:00,
2013-09-02 18:34:00,81.0,59.0,-100.00,NE,38,3.0,8.0,47,0.00,,,-99.99,0.000000,,2013-09-02 23:34:00,
2013-09-02 18:42:00,81.0,59.0,-100.00,NE,38,3.0,8.0,47,0.00,,,-99.99,0.000000,,2013-09-02 23:42:00,
2013-09-02 18:52:00,81.0,59.0,-100.00,NE,38,3.0,8.0,47,0.00,,,-99.99,0.000000,,2013-09-02 23:52:00,
2013-09-02 19:22:00,80.0,60.0,-100.00,ENE,59,5.0,7.0,50,0.00,,,0.00,0.000000,,2013-09-03 00:22:00,
2013-09-02 19:32:00,80.0,60.0,-100.00,ENE,59,5.0,7.0,50,0.00,,,0.00,0.000000,,2013-09-03 00:32:00,
2013-09-02 19:42:00,80.0,60.0,-100.00,ENE,59,5.0,7.0,50,0.00,,,0.00,0.000000,,2013-09-03 00:42:00,
2013-09-02 19:52:00,80.0,60.0,-100.00,ENE,59,5.0,7.0,50,0.00,,,0.00,0.000000,,2013-09-03 00:52:00,
2013-09-02 20:21:00,73.0,60.0,-100.00,ENE,69,4.0,6.0,64,0.00,,,-99.99,0.000000,,2013-09-03 01:21:00,
2013-09-02 20:32:00,73.0,60.0,-100.00,ENE,69,4.0,6.0,64,0.00,,,-99.99,0.000000,,2013-09-03 01:32:00,
2013-09-02 20:42:00,73.0,60.0,-100.00,ENE,69,4.0,6.0,64,0.00,,,-99.99,0.000000,,2013-09-03 01:42:00,
2013-09-02 20:52:00,73.0,60.0,-100.00,ENE,69,4.0,6.0,64,0.00,,,-99.99,0.000000,,2013-09-03 01:52:00,
2013-09-02 21:42:00,67.0,61.0,-100.00,East,96,6.0,7.0,82,0.00,,,0.00,0.000000,,2013-09-03 02:42:00,
2013-09-02 21:52:00,67.0,61.0,-100.00,East,96,6.0,7.0,82,0.00,,,0.00,0.000000,,2013-09-03 02:52:00,
2013-09-02 22:23:00,64.0,64.0,-100.00,ESE,115,5.0,9.0,99,0.00,,,0.00,0.000000,,2013-09-03 03:23:00,
2013-09-02 22:34:00,64.0,64.0,-100.00,ESE,115,5.0,9.0,99,0.00,,,0.00,0.000000,,2013-09-03 03:34:00,
2013-09-02 22:45:00,64.0,64.0,-100.00,ESE,115,5.0,9.0,99,0.00,,,0.00,0.000000,,2013-09-03 03:45:00,
2013-09-02 22:55:00,64.0,64.0,-100.00,ESE,115,5.0,9.0,99,0.00,,,0.00,0.000000,,2013-09-03 03:55:00,
2013-09-02 23:25:00,62.0,62.0,-100.00,SE,126,5.0,7.0,100,0.00,,,0.00,0.000000,,2013-09-03 04:25:00,
2013-09-02 23:34:00,62.0,62.0,-100.00,SE,126,5.0,7.0,100,0.00,,,0.00,0.000000,,2013-09-03 04:34:00,
2013-09-02 23:44:00,62.0,62.0,-100.00,SE,126,5.0,7.0,100,0.00,,,0.00,0.000000,,2013-09-03 04:44:00,
2013-09-02 23:53:00,62.0,62.0,-100.00,SE,126,5.0,7.0,100,0.00,,,0.00,0.000000,,2013-09-03 04:53:00,